Time;durP1;ratioP1;P1;durP2;ratioP2;P2;SDS_P1;SDS_P2;PMS_P1;PMS_P2;Temp;Humidity;BMP_temperature;BMP_pressure;BME280_temperature;BME280_humidity;BME280_pressure;Samples;Min_cycle;Max_cycle;Signal;HPM_P1;HPM_P2
2023/10/07 00:02:14;;;;;;;13.82;5.20;;;15.90;99.90;;;;;;5056157;28;20037;-25
2023/10/07 00:04:44;;;;;;;14.27;5.18;;;15.90;99.90;;;;;;5070282;28;20033;-25
2023/10/07 00:07:11;;;;;;;13.25;4.88;;;15.90;99.90;;;;;;5069733;28;20111;-26
2023/10/07 00:09:39;;;;;;;13.77;5.18;;;15.90;99.90;;;;;;5060397;28;20041;-25
2023/10/07 00:12:05;;;;;;;13.18;5.03;;;15.90;99.90;;;;;;5067530;28;20036;-26
2023/10/07 00:14:30;;;;;;;16.48;5.20;;;15.90;99.90;;;;;;5070511;28;20549;-26
2023/10/07 00:16:57;;;;;;;10.55;4.82;;;16.00;99.90;;;;;;5070682;28;20702;-25
2023/10/07 00:19:24;;;;;;;17.33;5.65;;;16.00;99.90;;;;;;5070710;28;20384;-26
2023/10/07 00:21:59;;;;;;;14.77;5.47;;;16.00;99.90;;;;;;5071007;28;20155;-25
2023/10/07 00:24:26;;;;;;;17.30;5.38;;;16.00;99.90;;;;;;5068659;28;20448;-26
2023/10/07 00:26:56;;;;;;;10.75;5.55;;;16.00;99.90;;;;;;5068897;28;20445;-26
2023/10/07 00:29:23;;;;;;;14.82;5.03;;;16.00;99.90;;;;;;5062406;28;20052;-26
2023/10/07 00:31:52;;;;;;;18.67;5.40;;;16.00;99.90;;;;;;5065176;28;20040;-26
2023/10/07 00:34:26;;;;;;;15.20;5.20;;;16.00;99.90;;;;;;5066321;28;20403;-25
2023/10/07 00:36:54;;;;;;;19.13;5.50;;;16.00;99.90;;;;;;5069481;28;20044;-26
2023/10/07 00:39:22;;;;;;;12.27;5.35;;;16.00;99.90;;;;;;5067154;28;20029;-26
2023/10/07 00:41:58;;;;;;;15.40;5.20;;;16.00;99.90;;;;;;5067220;28;20028;-25
2023/10/07 00:44:34;;;;;;;13.27;4.78;;;16.10;99.90;;;;;;5070957;28;20147;-26
2023/10/07 00:49:39;;;;;;;16.20;5.78;;;16.00;99.90;;;;;;5066788;28;20055;-26
2023/10/07 00:52:06;;;;;;;14.68;5.00;;;16.00;99.90;;;;;;5070210;28;20044;-26
2023/10/07 00:57:53;;;;;;;15.05;5.50;;;16.10;99.90;;;;;;5069568;28;20044;-26
2023/10/07 01:00:56;;;;;;;14.98;5.25;;;16.10;99.90;;;;;;5067313;28;20044;-26
2023/10/07 01:08:28;;;;;;;12.82;5.20;;;16.10;99.90;;;;;;5072483;28;20382;-26
2023/10/07 01:11:06;;;;;;;15.05;6.18;;;16.10;99.90;;;;;;5067379;28;20491;-26
2023/10/07 01:13:35;;;;;;;19.08;6.60;;;16.10;99.90;;;;;;5066329;28;20028;-26
2023/10/07 01:16:06;;;;;;;16.08;5.40;;;16.20;99.90;;;;;;5071647;28;20093;-26
2023/10/07 01:18:38;;;;;;;13.13;5.20;;;16.20;99.90;;;;;;5070574;28;20101;-26
2023/10/07 01:21:11;;;;;;;12.63;4.85;;;16.20;99.90;;;;;;5067479;28;20245;-26
2023/10/07 01:23:40;;;;;;;17.02;6.63;;;16.20;99.90;;;;;;5069085;28;20040;-25
2023/10/07 01:26:15;;;;;;;16.45;5.60;;;16.20;99.90;;;;;;5070516;28;20065;-26
2023/10/07 01:28:43;;;;;;;13.15;5.53;;;16.30;99.90;;;;;;5068084;28;20380;-25
2023/10/07 01:31:17;;;;;;;16.25;5.43;;;16.30;99.90;;;;;;5069597;28;20037;-25
2023/10/07 01:33:46;;;;;;;13.40;5.53;;;16.30;99.90;;;;;;5068656;28;20529;-26
2023/10/07 01:36:25;;;;;;;12.52;5.80;;;16.30;99.90;;;;;;5066262;28;20040;-26
2023/10/07 01:38:51;;;;;;;13.85;5.78;;;16.30;99.90;;;;;;5070315;28;20476;-26
2023/10/07 01:41:22;;;;;;;17.02;6.60;;;16.30;99.90;;;;;;5068524;28;20036;-26
2023/10/07 01:44:05;;;;;;;14.00;5.35;;;16.20;99.90;;;;;;5067211;28;20043;-25
2023/10/07 01:46:32;;;;;;;13.73;5.72;;;16.20;99.90;;;;;;5069586;28;20040;-26
2023/10/07 01:49:16;;;;;;;15.00;5.55;;;16.20;99.90;;;;;;5067728;28;20369;-26
2023/10/07 01:51:44;;;;;;;9.60;5.97;;;16.20;99.90;;;;;;5071911;28;20041;-26
2023/10/07 01:54:11;;;;;;;10.93;5.05;;;16.20;99.90;;;;;;5069072;28;20402;-26
2023/10/07 01:56:41;;;;;;;15.93;6.03;;;16.20;99.90;;;;;;5070328;28;20047;-26
2023/10/07 02:01:43;;;;;;;12.18;5.70;;;16.20;99.90;;;;;;5070606;28;20044;-26
2023/10/07 02:04:17;;;;;;;16.15;5.70;;;16.20;99.90;;;;;;5069234;28;20097;-25
2023/10/07 02:06:52;;;;;;;14.43;6.43;;;16.20;99.90;;;;;;5071378;28;20048;-26
2023/10/07 02:09:25;;;;;;;11.32;5.63;;;16.30;99.90;;;;;;5068586;28;20064;-26
2023/10/07 02:12:00;;;;;;;;;;;16.30;99.90;;;;;;5068245;28;20099;-23
2023/10/07 02:14:29;;;;;;;11.93;5.40;;;16.30;99.90;;;;;;5067086;28;20302;-26
2023/10/07 02:16:56;;;;;;;12.77;5.25;;;16.30;99.90;;;;;;5064402;28;20044;-25
2023/10/07 02:19:29;;;;;;;13.32;5.85;;;16.30;99.90;;;;;;5068440;28;20492;-26
2023/10/07 02:22:07;;;;;;;13.40;6.05;;;16.30;99.90;;;;;;5059671;28;20055;-26
2023/10/07 02:24:34;;;;;;;10.68;5.53;;;16.30;99.90;;;;;;5064756;28;20044;-26
2023/10/07 02:27:17;;;;;;;13.13;6.32;;;16.40;99.90;;;;;;5068469;28;20032;-26
2023/10/07 02:29:57;;;;;;;13.20;5.40;;;16.40;99.90;;;;;;5068268;28;20048;-25
2023/10/07 02:32:23;;;;;;;12.77;5.32;;;16.40;99.90;;;;;;5068660;28;20044;-25
2023/10/07 02:34:51;;;;;;;18.08;6.20;;;16.40;99.90;;;;;;5067762;28;20036;-26
2023/10/07 02:37:21;;;;;;;12.50;4.93;;;16.40;99.90;;;;;;5069318;28;20395;-26
2023/10/07 02:39:48;;;;;;;17.60;5.70;;;16.40;99.90;;;;;;5068837;28;20079;-26
2023/10/07 02:42:24;;;;;;;13.70;5.47;;;16.40;99.90;;;;;;5070083;28;20617;-26
2023/10/07 02:45:00;;;;;;;14.68;6.15;;;16.40;99.90;;;;;;5063196;28;20044;-25
2023/10/07 02:47:30;;;;;;;14.85;6.68;;;16.40;99.90;;;;;;5068157;28;20044;-25
2023/10/07 02:50:00;;;;;;;17.67;6.45;;;16.40;99.90;;;;;;5064481;28;20511;-26
2023/10/07 02:52:34;;;;;;;13.43;6.25;;;16.40;99.90;;;;;;5068533;28;20031;-26
2023/10/07 02:57:45;;;;;;;14.90;6.45;;;16.50;99.90;;;;;;5067478;28;20130;-26
2023/10/07 03:00:17;;;;;;;12.85;6.60;;;16.40;99.90;;;;;;5068478;28;20089;-25
2023/10/07 03:02:49;;;;;;;16.92;7.15;;;16.50;99.90;;;;;;5068366;28;20112;-26
2023/10/07 03:05:25;;;;;;;17.75;7.53;;;16.50;99.90;;;;;;5064126;28;20514;-26
2023/10/07 03:08:01;;;;;;;17.15;7.00;;;16.50;99.90;;;;;;5065890;28;20068;-26
2023/10/07 03:13:19;;;;;;;16.70;6.28;;;16.50;99.90;;;;;;5030274;28;20037;-26
2023/10/07 03:15:46;;;;;;;11.95;6.43;;;16.50;99.90;;;;;;5072833;28;20407;-25
2023/10/07 03:18:21;;;;;;;11.88;6.38;;;16.60;99.90;;;;;;5067804;28;20040;-26
2023/10/07 03:20:59;;;;;;;15.20;6.40;;;16.50;99.90;;;;;;5073963;28;20059;-26
2023/10/07 03:23:26;;;;;;;14.20;6.65;;;16.60;99.90;;;;;;5070227;28;20116;-26
2023/10/07 03:28:35;;;;;;;11.60;6.25;;;16.60;99.90;;;;;;5068549;28;20410;-26
2023/10/07 03:31:11;;;;;;;14.80;6.85;;;16.60;99.90;;;;;;5068419;28;20396;-26
2023/10/07 03:33:53;;;;;;;13.52;6.50;;;16.60;99.90;;;;;;5070196;28;20116;-26
2023/10/07 03:41:35;;;;;;;16.50;6.68;;;16.60;99.90;;;;;;5070726;28;20052;-26
2023/10/07 03:44:02;;;;;;;12.77;6.32;;;16.60;99.90;;;;;;5071307;28;20039;-26
2023/10/07 03:46:27;;;;;;;13.35;6.07;;;16.60;99.90;;;;;;5053143;28;20123;-26
2023/10/07 03:48:55;;;;;;;18.88;6.68;;;16.60;99.90;;;;;;5067551;28;20036;-25
2023/10/07 03:51:22;;;;;;;13.15;6.43;;;16.60;99.90;;;;;;5069475;28;20510;-26
2023/10/07 03:53:51;;;;;;;12.85;6.57;;;16.60;99.90;;;;;;5067562;28;20029;-26
2023/10/07 03:56:20;;;;;;;17.13;6.65;;;16.60;99.90;;;;;;5072537;28;20040;-26
2023/10/07 03:58:47;;;;;;;16.05;6.30;;;16.60;99.90;;;;;;5070826;28;20037;-26
2023/10/07 04:01:22;;;;;;;12.98;6.45;;;16.60;99.90;;;;;;5075599;28;20048;-26
2023/10/07 04:03:50;;;;;;;15.02;6.35;;;16.60;99.90;;;;;;5068571;28;20040;-25
2023/10/07 04:06:30;;;;;;;14.88;6.50;;;16.60;99.90;;;;;;5068057;28;20333;-26
2023/10/07 04:09:05;;;;;;;19.23;5.93;;;16.60;99.90;;;;;;5077520;28;20048;-26
2023/10/07 04:11:36;;;;;;;15.50;6.35;;;16.60;99.90;;;;;;5073922;28;20519;-26
2023/10/07 04:14:45;;;;;;;14.23;6.60;;;16.60;99.90;;;;;;5070455;28;20040;-26
2023/10/07 04:16:52;;;;;;;15.45;6.55;;;16.60;99.90;;;;;;5064017;28;20411;-25
2023/10/07 04:21:50;;;;;;;17.17;7.65;;;16.60;99.90;;;;;;5068986;28;20158;-26
2023/10/07 04:24:18;;;;;;;15.27;6.65;;;16.60;99.90;;;;;;5070316;28;20043;-25
2023/10/07 04:26:54;;;;;;;16.42;6.68;;;16.60;99.90;;;;;;5073621;28;20395;-26
2023/10/07 04:29:21;;;;;;;13.57;6.45;;;16.60;99.90;;;;;;5069297;28;20106;-26
2023/10/07 04:31:51;;;;;;;15.07;7.22;;;16.60;99.90;;;;;;5065614;28;20113;-26
2023/10/07 04:34:21;;;;;;;16.65;6.55;;;16.60;99.90;;;;;;5072509;28;20518;-26
2023/10/07 04:39:37;;;;;;;17.02;7.03;;;16.70;99.90;;;;;;5067786;28;20040;-25
2023/10/07 04:42:07;;;;;;;15.15;6.45;;;16.70;99.90;;;;;;5067256;28;20060;-26
2023/10/07 04:49:57;;;;;;;13.65;6.78;;;16.70;99.90;;;;;;5073981;28;20278;-25
2023/10/07 04:52:30;;;;;;;16.88;7.38;;;16.70;99.90;;;;;;5074261;28;20036;-25
2023/10/07 04:55:01;;;;;;;18.85;7.30;;;16.70;99.90;;;;;;5074092;28;20098;-25
2023/10/07 05:03:08;;;;;;;16.25;6.82;;;16.70;99.90;;;;;;5072896;28;20481;-25
2023/10/07 05:05:34;;;;;;;15.38;6.78;;;16.70;99.90;;;;;;5071746;28;20052;-25
2023/10/07 05:08:19;;;;;;;16.58;6.35;;;16.70;99.90;;;;;;5072263;28;20047;-25
2023/10/07 05:10:55;;;;;;;16.92;7.03;;;16.70;99.90;;;;;;5072730;28;20072;-25
2023/10/07 05:13:21;;;;;;;18.30;7.72;;;16.70;99.90;;;;;;5053033;28;20554;-24
2023/10/07 05:15:47;;;;;;;13.07;6.88;;;16.70;99.90;;;;;;5052858;28;20045;-25
2023/10/07 05:18:16;;;;;;;17.67;7.40;;;16.70;99.90;;;;;;5050454;28;20059;-25
2023/10/07 05:20:46;;;;;;;18.30;7.05;;;16.70;99.90;;;;;;5052170;28;20126;-25
2023/10/07 05:23:17;;;;;;;16.15;6.43;;;16.70;99.90;;;;;;5056610;28;20045;-25
2023/10/07 05:25:50;;;;;;;16.10;7.10;;;16.70;99.90;;;;;;5056587;28;20072;-25
2023/10/07 05:28:22;;;;;;;;;;;16.70;99.90;;;;;;5052385;28;20423;-22
2023/10/07 05:30:50;;;;;;;12.73;6.10;;;16.70;99.90;;;;;;5044603;28;20475;-25
2023/10/07 05:33:26;;;;;;;16.33;6.60;;;16.70;99.90;;;;;;5051724;28;20171;-25
2023/10/07 05:35:58;;;;;;;11.70;6.18;;;16.70;99.90;;;;;;5044598;28;20045;-25
2023/10/07 05:38:25;;;;;;;15.85;6.50;;;16.70;99.90;;;;;;5054032;28;20039;-25
2023/10/07 05:40:51;;;;;;;14.70;6.32;;;16.80;99.90;;;;;;5071037;28;20507;-25
2023/10/07 05:43:17;;;;;;;11.13;5.57;;;16.80;99.90;;;;;;5071834;28;20052;-25
2023/10/07 05:45:45;;;;;;;14.82;6.53;;;16.70;99.90;;;;;;5071650;28;20044;-25
2023/10/07 05:48:11;;;;;;;17.02;6.78;;;16.70;99.90;;;;;;5071671;28;20044;-25
2023/10/07 05:50:38;;;;;;;14.50;6.30;;;16.70;99.90;;;;;;5071324;28;20040;-25
2023/10/07 05:53:05;;;;;;;14.13;6.47;;;16.70;99.90;;;;;;5071624;28;20128;-26
2023/10/07 05:55:34;;;;;;;13.35;6.38;;;16.80;99.90;;;;;;5071249;28;20116;-24
2023/10/07 05:58:04;;;;;;;14.25;6.40;;;16.80;99.90;;;;;;5061358;28;20515;-24
2023/10/07 06:00:33;;;;;;;15.93;7.15;;;16.80;99.90;;;;;;5048871;28;20301;-24
2023/10/07 06:03:06;;;;;;;12.30;6.63;;;16.80;99.90;;;;;;5048565;28;20488;-25
2023/10/07 06:05:33;;;;;;;14.93;6.00;;;16.80;99.90;;;;;;5047048;28;20057;-25
2023/10/07 06:08:00;;;;;;;18.23;6.35;;;16.80;99.90;;;;;;5052082;28;20044;-25
2023/10/07 06:10:26;;;;;;;14.75;6.38;;;16.80;99.90;;;;;;5068984;28;20044;-25
2023/10/07 06:12:55;;;;;;;13.85;6.32;;;16.80;99.90;;;;;;5068249;28;20044;-25
2023/10/07 06:15:23;;;;;;;12.27;6.05;;;16.80;99.90;;;;;;5068236;28;20399;-25
2023/10/07 06:17:50;;;;;;;16.70;6.28;;;16.80;99.90;;;;;;5068637;28;20174;-25
2023/10/07 06:20:16;;;;;;;15.85;6.13;;;16.80;99.90;;;;;;5069238;28;20127;-25
2023/10/07 06:22:48;;;;;;;14.27;6.40;;;16.90;99.90;;;;;;5068215;28;20115;-25
2023/10/07 06:25:17;;;;;;;17.20;6.28;;;16.90;99.90;;;;;;5068186;28;20055;-25
2023/10/07 06:27:45;;;;;;;14.40;6.15;;;16.90;99.90;;;;;;5069835;28;20058;-25
2023/10/07 06:30:20;;;;;;;14.23;6.45;;;16.90;99.90;;;;;;5068306;28;20052;-25
2023/10/07 06:32:54;;;;;;;20.20;6.40;;;16.90;99.90;;;;;;5068209;28;20054;-25
2023/10/07 06:35:23;;;;;;;16.13;7.07;;;16.90;99.90;;;;;;5067304;28;20553;-25
2023/10/07 06:37:52;;;;;;;13.20;6.18;;;16.90;99.90;;;;;;5067506;28;20036;-25
2023/10/07 06:42:51;;;;;;;15.35;6.65;;;16.90;99.90;;;;;;5068006;28;20555;-25
2023/10/07 06:45:17;;;;;;;17.50;6.72;;;16.90;99.90;;;;;;5066020;28;20052;-25
2023/10/07 06:47:46;;;;;;;16.23;6.05;;;16.90;99.90;;;;;;5065368;28;20051;-25
2023/10/07 06:50:27;;;;;;;15.30;6.30;;;16.90;99.90;;;;;;5066845;28;20073;-25
2023/10/07 06:52:56;;;;;;;19.00;7.05;;;16.90;99.90;;;;;;5083405;22;20335;-87
2023/10/07 06:55:22;;;;;;;12.95;6.40;;;16.90;99.90;;;;;;5033936;28;20044;-87
2023/10/07 06:57:56;;;;;;;21.60;7.20;;;16.90;99.90;;;;;;5044234;28;20044;-85
2023/10/07 07:00:37;;;;;;;12.32;6.97;;;16.90;99.90;;;;;;5042132;28;20200;-85
2023/10/07 07:03:10;;;;;;;17.40;7.20;;;16.80;99.90;;;;;;5043810;28;20040;-86
2023/10/07 07:05:40;;;;;;;16.95;6.90;;;16.90;99.90;;;;;;5061007;28;20147;-86
2023/10/07 07:08:09;;;;;;;15.07;6.63;;;16.90;99.90;;;;;;5048679;28;20528;-86
2023/10/07 07:10:35;;;;;;;11.70;6.22;;;16.90;99.90;;;;;;5047027;28;20161;-87
2023/10/07 07:13:23;;;;;;;11.85;6.00;;;17.00;99.90;;;;;;5063359;28;20040;-90
2023/10/07 07:16:06;;;;;;;15.90;6.40;;;17.00;99.90;;;;;;5045847;28;20079;-91
2023/10/07 07:18:39;;;;;;;16.15;7.28;;;17.00;99.90;;;;;;5063865;28;20044;-86
2023/10/07 07:23:54;;;;;;;16.80;6.95;;;16.90;99.90;;;;;;5064069;28;20135;-84
2023/10/07 07:26:21;;;;;;;12.70;6.45;;;17.00;99.90;;;;;;5061336;28;20044;-84
2023/10/07 07:28:47;;;;;;;20.83;7.20;;;17.00;99.90;;;;;;5045316;28;20395;-84
2023/10/07 07:31:18;;;;;;;16.77;6.95;;;17.10;99.90;;;;;;5045516;28;20147;-85
2023/10/07 07:33:48;;;;;;;15.68;6.32;;;17.00;99.90;;;;;;5042593;28;20043;-85
2023/10/07 07:36:38;;;;;;;16.27;7.20;;;17.20;99.90;;;;;;5060456;28;20040;-84
2023/10/07 07:39:09;;;;;;;15.82;6.63;;;17.30;99.90;;;;;;5061934;28;20043;-85
2023/10/07 07:41:54;;;;;;;14.73;6.05;;;17.50;99.90;;;;;;5059605;28;20045;-84
2023/10/07 07:44:32;;;;;;;18.50;6.75;;;17.60;99.90;;;;;;5047448;28;20528;-84
2023/10/07 07:47:05;;;;;;;14.95;6.53;;;17.70;99.90;;;;;;5048646;28;20042;-83
2023/10/07 07:49:39;;;;;;;13.23;6.80;;;17.70;99.90;;;;;;5062330;28;20044;-84
2023/10/07 07:52:08;;;;;;;19.15;6.15;;;17.80;99.90;;;;;;5043776;28;20036;-84
2023/10/07 07:54:34;;;;;;;15.50;6.10;;;17.90;99.90;;;;;;5062636;28;20048;-83
2023/10/07 07:57:12;;;;;;;16.02;5.93;;;18.00;99.90;;;;;;5043866;28;20036;-83
2023/10/07 07:59:38;;;;;;;12.27;5.13;;;18.10;99.90;;;;;;5048302;28;20406;-85
2023/10/07 08:02:15;;;;;;;13.07;5.82;;;18.00;99.90;;;;;;5049679;28;20129;-86
2023/10/07 08:04:46;;;;;;;14.65;5.88;;;18.10;99.90;;;;;;5054927;28;20044;-84
2023/10/07 08:07:27;;;;;;;10.02;5.68;;;18.10;99.90;;;;;;5050278;28;20039;-86
2023/10/07 08:09:58;;;;;;;12.35;5.53;;;18.20;99.90;;;;;;5054127;28;20142;-85
2023/10/07 08:12:36;;;;;;;13.85;5.55;;;18.30;99.90;;;;;;5051084;28;20048;-85
2023/10/07 08:15:21;;;;;;;11.40;5.35;;;18.20;99.90;;;;;;5054930;28;20032;-86
2023/10/07 08:17:50;;;;;;;10.82;5.03;;;18.30;99.90;;;;;;5069673;28;20113;-85
2023/10/07 08:20:16;;;;;;;10.07;5.30;;;18.50;99.90;;;;;;5055111;28;20050;-85
2023/10/07 08:22:45;;;;;;;11.35;5.47;;;18.60;99.90;;;;;;5053214;28;20118;-86
2023/10/07 08:25:15;;;;;;;10.18;5.55;;;18.70;99.90;;;;;;5072320;28;20032;-86
2023/10/07 08:27:44;;;;;;;15.40;5.57;;;18.80;99.90;;;;;;5050721;28;20036;-86
2023/10/07 08:30:14;;;;;;;11.07;4.95;;;18.70;99.90;;;;;;5068705;28;20043;-88
2023/10/07 08:32:41;;;;;;;12.98;5.03;;;18.70;99.90;;;;;;5051565;28;20039;-87
2023/10/07 08:35:17;;;;;;;12.27;5.60;;;18.70;99.90;;;;;;5055021;28;20032;-87
2023/10/07 08:37:46;;;;;;;11.52;5.32;;;18.60;99.90;;;;;;5053211;28;20075;-87
2023/10/07 08:40:43;;;;;;;14.52;4.90;;;18.70;99.90;;;;;;5048551;28;20032;-87
2023/10/07 08:43:15;;;;;;;10.73;5.05;;;18.60;99.90;;;;;;5074483;28;20042;-86
2023/10/07 08:45:42;;;;;;;10.07;5.32;;;18.60;99.90;;;;;;5087619;28;20067;-87
2023/10/07 08:48:16;;;;;;;15.98;6.03;;;18.60;99.90;;;;;;5059301;28;20039;-87
2023/10/07 08:51:10;;;;;;;10.40;4.95;;;18.60;99.90;;;;;;5055130;28;20071;-86
2023/10/07 08:53:31;;;;;;;10.13;4.88;;;18.70;99.90;;;;;;5073256;28;20413;-86
2023/10/07 08:55:57;;;;;;;11.85;5.40;;;18.70;99.90;;;;;;5072770;28;20036;-89
2023/10/07 08:58:34;;;;;;;11.50;5.03;;;18.70;99.90;;;;;;5053804;28;20036;-86
2023/10/07 09:01:01;;;;;;;13.50;5.03;;;18.70;99.90;;;;;;5056512;28;20148;-86
2023/10/07 09:03:29;;;;;;;10.93;4.88;;;18.60;99.90;;;;;;5056784;28;20036;-87
2023/10/07 09:05:59;;;;;;;13.02;5.18;;;18.60;99.90;;;;;;5069116;28;20168;-88
2023/10/07 09:08:25;;;;;;;12.10;5.18;;;18.50;99.90;;;;;;5055876;28;20040;-87
2023/10/07 09:10:52;;;;;;;11.70;5.32;;;18.50;99.90;;;;;;5053433;28;20048;-85
2023/10/07 09:13:27;;;;;;;13.48;5.28;;;18.60;99.90;;;;;;5072319;28;20075;-86
2023/10/07 09:15:59;;;;;;;10.13;4.20;;;18.70;99.90;;;;;;5051703;28;20044;-85
2023/10/07 09:18:35;;;;;;;8.43;4.43;;;18.80;99.90;;;;;;5064879;28;20085;-85
2023/10/07 09:21:07;;;;;;;13.82;4.78;;;18.90;99.90;;;;;;5053543;28;20047;-86
2023/10/07 09:23:43;;;;;;;10.60;4.43;;;19.00;99.90;;;;;;5053039;28;20044;-86
2023/10/07 09:26:21;;;;;;;9.07;4.38;;;19.10;99.90;;;;;;5069698;28;20115;-85
2023/10/07 09:28:58;;;;;;;11.73;4.50;;;19.20;99.90;;;;;;5071073;28;20822;-86
2023/10/07 09:31:26;;;;;;;7.85;4.00;;;19.30;99.90;;;;;;5066884;28;20452;-86
2023/10/07 09:33:52;;;;;;;12.82;4.15;;;19.40;99.90;;;;;;5052104;28;20033;-86
2023/10/07 09:39:14;;;;;;;10.50;4.22;;;19.60;99.90;;;;;;5066771;28;20040;-88
2023/10/07 09:41:44;;;;;;;10.52;4.90;;;19.70;99.90;;;;;;5071676;28;20110;-86
2023/10/07 09:44:21;;;;;;;8.82;3.92;;;19.80;99.90;;;;;;5071316;28;20043;-87
2023/10/07 09:46:52;;;;;;;15.73;5.40;;;19.80;99.90;;;;;;5055048;28;20374;-87
2023/10/07 09:49:22;;;;;;;9.40;4.28;;;20.00;99.90;;;;;;5053717;28;20059;-87
2023/10/07 09:52:02;;;;;;;12.05;3.95;;;20.10;99.90;;;;;;5052509;28;20506;-85
2023/10/07 09:54:49;;;;;;;13.07;5.88;;;20.10;99.90;;;;;;5067613;28;20052;-86
2023/10/07 09:57:30;;;;;;;8.38;3.92;;;20.20;99.90;;;;;;5051537;28;20441;-87
2023/10/07 10:03:45;;;;;;;8.75;4.50;;;20.20;99.90;;;;;;5071580;28;20131;-86
2023/10/07 10:06:42;;;;;;;11.35;4.43;;;20.00;99.90;;;;;;4992028;28;20113;-87
2023/10/07 10:09:13;;;;;;;9.30;4.82;;;20.00;99.90;;;;;;4975995;28;20046;-87
2023/10/07 10:16:47;;;;;;;12.23;4.95;;;19.90;99.90;;;;;;5070980;28;20498;-87
2023/10/07 10:19:44;;;;;;;12.57;4.60;;;19.90;99.90;;;;;;5068419;28;20040;-86
2023/10/07 10:22:10;;;;;;;8.02;3.85;;;19.90;99.90;;;;;;5065348;28;20358;-87
2023/10/07 10:24:44;;;;;;;10.35;4.40;;;19.90;99.90;;;;;;5069697;28;20048;-89
2023/10/07 10:27:15;;;;;;;13.00;4.88;;;19.90;99.90;;;;;;5087256;28;20101;-86
2023/10/07 10:30:06;;;;;;;10.48;4.65;;;19.80;99.90;;;;;;5070939;28;20039;-86
2023/10/07 10:32:36;;;;;;;12.23;4.47;;;19.80;99.90;;;;;;5052236;28;20040;-86
2023/10/07 10:35:06;;;;;;;14.05;4.57;;;19.70;99.90;;;;;;5067492;28;20185;-87
2023/10/07 10:37:32;;;;;;;11.00;4.07;;;19.80;99.90;;;;;;5055109;28;20542;-84
2023/10/07 10:40:09;;;;;;;9.43;3.80;;;19.80;99.90;;;;;;5070183;28;20039;-85
2023/10/07 10:42:42;;;;;;;12.70;4.72;;;19.80;99.90;;;;;;5051403;28;20039;-87
2023/10/07 10:45:19;;;;;;;14.00;4.63;;;20.00;99.90;;;;;;5053541;28;20036;-86
2023/10/07 10:47:52;;;;;;;11.70;4.93;;;20.10;99.90;;;;;;5065476;28;20494;-85
2023/10/07 10:50:28;;;;;;;9.10;4.22;;;20.30;99.90;;;;;;5067622;28;20506;-85
2023/10/07 10:52:55;;;;;;;12.45;4.90;;;20.40;99.90;;;;;;5068370;28;20469;-85
2023/10/07 10:55:24;;;;;;;10.05;4.55;;;20.50;99.90;;;;;;5069081;28;20036;-84
2023/10/07 10:57:53;;;;;;;9.93;4.53;;;20.50;99.90;;;;;;5051074;28;20077;-83
2023/10/07 11:00:22;;;;;;;10.43;4.43;;;20.50;99.90;;;;;;5048519;28;20294;-84
2023/10/07 11:02:53;;;;;;;11.50;4.75;;;20.40;99.90;;;;;;5049441;28;20086;-84
2023/10/07 11:05:22;;;;;;;12.43;4.50;;;20.20;99.90;;;;;;5068144;28;20073;-85
2023/10/07 11:07:50;;;;;;;12.32;5.45;;;20.30;99.90;;;;;;5052044;28;20462;-84
2023/10/07 11:10:24;;;;;;;10.98;4.93;;;20.20;99.90;;;;;;5064489;28;20032;-84
2023/10/07 11:12:53;;;;;;;11.50;4.78;;;20.20;99.90;;;;;;5069583;28;20040;-84
2023/10/07 11:15:25;;;;;;;12.63;4.35;;;20.20;99.90;;;;;;5066526;28;20441;-84
2023/10/07 11:18:13;;;;;;;12.70;4.60;;;20.20;99.90;;;;;;5066792;28;20486;-85
2023/10/07 11:20:43;;;;;;;13.07;5.18;;;20.20;99.90;;;;;;5047618;28;20071;-82
2023/10/07 11:23:10;;;;;;;11.05;4.20;;;20.20;99.90;;;;;;5048526;28;20044;-84
2023/10/07 11:25:36;;;;;;;12.85;4.72;;;20.20;99.90;;;;;;5064626;28;20044;-84
2023/10/07 11:28:09;;;;;;;9.73;4.38;;;20.10;99.90;;;;;;5068678;28;20459;-84
2023/10/07 11:30:48;;;;;;;12.40;4.80;;;20.10;99.90;;;;;;5053649;28;20525;-84
2023/10/07 11:33:19;;;;;;;11.88;5.05;;;20.20;99.90;;;;;;5048438;28;20043;-84
2023/10/07 11:36:06;;;;;;;15.30;4.82;;;20.30;99.90;;;;;;5074006;28;20861;-84
2023/10/07 11:38:33;;;;;;;13.88;4.95;;;20.50;99.90;;;;;;5052152;28;20044;-85
2023/10/07 11:40:59;;;;;;;10.55;4.95;;;20.70;99.90;;;;;;5070038;28;20163;-85
2023/10/07 11:43:27;;;;;;;9.55;4.22;;;20.80;99.90;;;;;;5055828;28;20039;-85
2023/10/07 11:45:53;;;;;;;10.25;4.40;;;20.80;99.90;;;;;;5053537;28;20128;-85
2023/10/07 11:48:24;;;;;;;10.50;4.72;;;20.70;99.90;;;;;;5065327;28;20482;-85
2023/10/07 11:50:54;;;;;;;10.05;4.88;;;20.70;99.90;;;;;;5069729;28;20063;-85
2023/10/07 11:53:20;;;;;;;14.80;5.15;;;20.70;99.90;;;;;;5074493;28;20040;-85
2023/10/07 11:55:45;;;;;;;10.02;4.30;;;20.70;99.90;;;;;;5052643;28;20405;-85
2023/10/07 11:58:15;;;;;;;11.05;4.95;;;20.80;99.90;;;;;;5070933;28;20040;-85
2023/10/07 12:00:42;;;;;;;14.98;4.75;;;20.70;99.90;;;;;;5051804;28;20044;-85
2023/10/07 12:03:34;;;;;;;10.82;4.20;;;20.70;99.90;;;;;;5075050;28;20040;-87
2023/10/07 12:06:00;;;;;;;17.98;5.03;;;20.60;99.90;;;;;;5058289;28;20052;-86
2023/10/07 12:08:26;;;;;;;10.00;4.78;;;20.60;99.90;;;;;;5086373;28;20047;-85
2023/10/07 12:10:52;;;;;;;12.85;5.05;;;20.70;99.90;;;;;;5054653;28;20052;-85
2023/10/07 12:13:19;;;;;;;11.30;4.57;;;21.00;99.90;;;;;;5069020;28;20105;-84
2023/10/07 12:15:45;;;;;;;9.88;4.68;;;21.50;99.90;;;;;;5067578;28;20051;-84
2023/10/07 12:18:16;;;;;;;15.00;4.95;;;21.60;99.90;;;;;;5054199;28;20194;-84
2023/10/07 12:20:44;;;;;;;10.52;5.22;;;21.70;99.90;;;;;;5071447;28;20798;-84
2023/10/07 12:23:10;;;;;;;10.85;4.45;;;21.60;99.90;;;;;;5070225;28;20511;-84
2023/10/07 12:25:37;;;;;;;9.52;4.32;;;21.60;99.90;;;;;;5083304;28;20051;-85
2023/10/07 12:28:05;;;;;;;11.25;5.38;;;21.70;99.90;;;;;;5072672;28;20414;-84
2023/10/07 12:30:32;;;;;;;12.13;4.90;;;22.10;99.90;;;;;;5069951;28;20040;-85
2023/10/07 12:33:00;;;;;;;12.85;4.75;;;22.50;99.90;;;;;;5053381;28;20036;-85
2023/10/07 12:35:30;;;;;;;9.75;4.25;;;23.00;99.90;;;;;;5054536;28;20037;-85
2023/10/07 12:37:56;;;;;;;11.50;4.95;;;23.60;99.90;;;;;;5070815;28;20120;-86
2023/10/07 12:40:46;;;;;;;9.82;4.60;;;24.30;99.90;;;;;;5051943;28;20032;-85
2023/10/07 12:43:13;;;;;;;11.50;4.93;;;24.80;99.90;;;;;;5073130;28;20127;-87
2023/10/07 12:45:41;;;;;;;11.80;5.35;;;25.30;99.90;;;;;;5054397;28;20051;-86
2023/10/07 12:48:09;;;;;;;12.63;5.47;;;25.10;99.90;;;;;;5052546;28;20040;-85
2023/10/07 12:50:42;;;;;;;9.63;4.97;;;25.00;99.90;;;;;;5054028;28;20486;-87
2023/10/07 12:56:33;;;;;;;10.75;4.88;;;24.70;99.90;;;;;;3148646;26;20071;-89
2023/10/07 12:59:28;;;;;;;11.23;4.53;;;24.70;99.90;;;;;;5059421;28;20049;-85
2023/10/07 13:06:52;;;;;;;;;;;;;;;;;;;;;
2023/10/07 13:09:40;;;;;;;9.88;4.75;;;24.30;99.90;;;;;;5059780;28;20045;-33
2023/10/07 13:12:13;;;;;;;9.13;4.25;;;24.40;99.90;;;;;;5069752;28;20067;-38
2023/10/07 13:14:42;;;;;;;9.27;4.30;;;24.80;99.90;;;;;;5068503;28;20411;-33
2023/10/07 13:17:13;;;;;;;10.75;4.68;;;25.00;99.90;;;;;;5070293;28;20036;-35
2023/10/07 13:19:40;;;;;;;11.18;4.75;;;25.30;99.90;;;;;;5067198;28;20392;-36
2023/10/07 13:22:06;;;;;;;9.93;4.30;;;24.80;99.90;;;;;;5067862;28;20048;-36
2023/10/07 13:24:32;;;;;;;13.75;4.95;;;24.30;99.90;;;;;;5066996;28;20167;-34
2023/10/07 13:26:58;;;;;;;9.73;5.18;;;24.10;99.90;;;;;;5066536;28;21395;-36
2023/10/07 13:29:24;;;;;;;11.88;4.95;;;23.80;99.90;;;;;;5059869;28;20479;-35
2023/10/07 13:31:53;;;;;;;11.23;5.05;;;23.60;99.90;;;;;;5066660;28;20040;-37
2023/10/07 13:34:20;;;;;;;12.38;5.07;;;23.00;99.90;;;;;;5061085;28;20044;-35
2023/10/07 13:36:46;;;;;;;15.48;5.82;;;22.80;99.90;;;;;;5067348;28;20041;-37
2023/10/07 13:39:15;;;;;;;11.52;4.95;;;22.60;99.90;;;;;;5062666;28;20120;-35
2023/10/07 13:41:45;;;;;;;10.68;5.72;;;22.20;99.90;;;;;;5064914;28;20090;-36
2023/10/07 13:44:16;;;;;;;12.90;5.10;;;22.10;99.90;;;;;;5051872;28;20033;-35
2023/10/07 13:46:43;;;;;;;11.13;5.20;;;21.80;99.90;;;;;;5059692;28;20135;-36
2023/10/07 13:49:09;;;;;;;11.00;5.25;;;21.50;99.90;;;;;;5061157;28;20502;-36
2023/10/07 13:51:43;;;;;;;9.40;4.38;;;21.30;99.90;;;;;;5064488;28;20059;-37
2023/10/07 13:54:22;;;;;;;9.38;4.68;;;21.20;99.90;;;;;;5063067;28;20868;-34
2023/10/07 13:56:53;;;;;;;13.07;5.05;;;21.00;99.90;;;;;;5064689;28;20044;-35
2023/10/07 13:59:19;;;;;;;14.60;5.03;;;20.90;99.90;;;;;;5062134;28;20032;-35
2023/10/07 14:01:50;;;;;;;12.23;5.18;;;20.70;99.90;;;;;;5064327;28;20510;-34
2023/10/07 14:04:18;;;;;;;10.82;4.68;;;20.60;99.90;;;;;;5059678;28;20121;-35
2023/10/07 14:06:51;;;;;;;12.30;5.20;;;20.60;99.90;;;;;;5062426;28;20041;-35
2023/10/07 14:09:38;;;;;;;12.25;5.38;;;20.60;99.90;;;;;;5061649;28;20422;-37
2023/10/07 14:12:06;;;;;;;11.63;5.93;;;20.60;99.90;;;;;;5063806;28;20040;-37